Time;durP1;ratioP1;P1;durP2;ratioP2;P2;SDS_P1;SDS_P2;PMS_P1;PMS_P2;Temp;Humidity;BMP_temperature;BMP_pressure;BME280_temperature;BME280_humidity;BME280_pressure;Samples;Min_cycle;Max_cycle;Signal;HPM_P1;HPM_P2
2022/02/22 00:00:03;;;;;;;0.00;0.00;;;;;;;12.34;66.38;97851.09;4824628;29;20126;-82
2022/02/22 00:02:29;;;;;;;0.00;0.00;;;;;;;12.38;66.55;97859.25;4824668;29;20033;-79
2022/02/22 00:04:54;;;;;;;0.10;0.10;;;;;;;12.35;66.72;97849.94;4824484;29;20038;-81
2022/02/22 00:07:20;;;;;;;0.00;0.00;;;;;;;12.34;66.59;97837.69;4823780;29;20029;-79
2022/02/22 00:09:45;;;;;;;0.00;0.00;;;;;;;12.33;66.80;97849.50;4823944;29;20132;-82
2022/02/22 00:12:11;;;;;;;0.10;0.10;;;;;;;12.33;67.27;97842.22;4824367;29;20025;-81
2022/02/22 00:14:36;;;;;;;0.00;0.00;;;;;;;12.32;67.40;97850.59;4832334;29;20154;-82
2022/02/22 00:17:02;;;;;;;0.08;0.08;;;;;;;12.32;67.47;97829.94;4824594;29;20037;-79
2022/02/22 00:19:28;;;;;;;0.03;0.03;;;;;;;12.32;67.92;97837.97;4823504;29;20030;-81
2022/02/22 00:21:55;;;;;;;0.00;0.00;;;;;;;12.34;68.26;97835.00;4824168;29;20486;-80
2022/02/22 00:24:21;;;;;;;0.00;0.00;;;;;;;12.35;68.08;97833.88;4824301;29;20071;-83
2022/02/22 00:26:47;;;;;;;0.10;0.10;;;;;;;12.38;67.99;97837.81;4824253;29;20033;-82
2022/02/22 00:29:13;;;;;;;0.25;0.25;;;;;;;12.38;68.29;97832.44;4823739;29;20041;-82
2022/02/22 00:31:39;;;;;;;0.10;0.10;;;;;;;12.40;68.12;97835.59;4820711;29;20050;-82
2022/02/22 00:34:06;;;;;;;0.00;0.00;;;;;;;12.41;67.93;97829.91;4817383;29;20040;-79
2022/02/22 00:36:33;;;;;;;0.00;0.00;;;;;;;12.44;68.08;97833.88;4824125;29;20038;-82
2022/02/22 00:39:00;;;;;;;0.10;0.10;;;;;;;12.45;67.67;97819.34;4823732;29;20057;-82
2022/02/22 00:41:26;;;;;;;0.00;0.00;;;;;;;12.43;67.61;97816.22;4823884;29;20060;-80
2022/02/22 00:43:51;;;;;;;0.08;0.08;;;;;;;12.49;67.33;97804.97;4833448;29;20038;-83
2022/02/22 00:46:17;;;;;;;0.00;0.00;;;;;;;12.52;66.54;97805.47;4823583;29;20033;-82
2022/02/22 00:48:42;;;;;;;0.10;0.10;;;;;;;12.55;67.34;97796.75;4838747;29;20037;-83
2022/02/22 00:51:08;;;;;;;0.00;0.00;;;;;;;12.56;66.75;97801.81;4823974;29;20090;-83
2022/02/22 00:53:33;;;;;;;0.10;0.10;;;;;;;12.57;66.81;97798.03;4823769;29;20037;-87
2022/02/22 00:55:59;;;;;;;0.00;0.00;;;;;;;12.57;66.94;97792.69;4823965;29;20022;-83
2022/02/22 00:58:24;;;;;;;0.00;0.00;;;;;;;12.60;66.13;97791.25;4823046;29;20018;-80
2022/02/22 01:00:50;;;;;;;0.00;0.00;;;;;;;12.59;65.92;97787.00;4823671;29;20086;-80
2022/02/22 01:03:15;;;;;;;0.00;0.00;;;;;;;12.57;66.31;97787.31;4818234;29;20060;-80
2022/02/22 01:05:41;;;;;;;0.00;0.00;;;;;;;12.57;66.15;97787.31;4822839;29;20038;-82
2022/02/22 01:08:06;;;;;;;0.15;0.15;;;;;;;12.58;66.29;97783.50;4823732;29;20030;-79
2022/02/22 01:10:32;;;;;;;0.00;0.00;;;;;;;12.60;66.15;97785.88;4838555;29;20125;-77
2022/02/22 01:12:58;;;;;;;0.00;0.00;;;;;;;12.62;65.79;97780.97;4823864;29;20421;-80
2022/02/22 01:15:24;;;;;;;0.00;0.00;;;;;;;12.62;65.87;97784.47;4823910;29;20034;-82
2022/02/22 01:17:50;;;;;;;0.00;0.00;;;;;;;12.62;66.09;97784.47;4823964;29;20040;-86
2022/02/22 01:20:15;;;;;;;0.00;0.00;;;;;;;12.61;65.81;97785.56;4837650;29;20026;-83
2022/02/22 01:22:41;;;;;;;0.00;0.00;;;;;;;12.60;65.64;97777.84;4821111;29;20105;-81
2022/02/22 01:25:08;;;;;;;0.00;0.00;;;;;;;12.59;65.88;97768.22;4838865;29;20038;-81
2022/02/22 01:27:34;;;;;;;0.00;0.00;;;;;;;12.59;65.61;97766.31;4823519;29;20022;-81
2022/02/22 01:30:00;;;;;;;0.22;0.22;;;;;;;12.56;65.83;97769.66;4822590;29;20128;-82
2022/02/22 01:32:27;;;;;;;0.00;0.00;;;;;;;12.57;65.45;97765.06;4822117;29;20129;-81
2022/02/22 01:34:52;;;;;;;0.10;0.10;;;;;;;12.55;65.88;97761.91;4823345;29;20022;-81
2022/02/22 01:37:18;;;;;;;0.00;0.00;;;;;;;12.46;66.09;97764.63;4834397;29;20508;-81
2022/02/22 01:39:44;;;;;;;0.10;0.10;;;;;;;12.45;66.06;97760.34;4828062;29;20054;-83
2022/02/22 01:42:10;;;;;;;0.00;0.00;;;;;;;12.41;66.25;97757.53;4838888;29;20030;-78
2022/02/22 01:44:35;;;;;;;0.00;0.00;;;;;;;12.41;66.16;97756.75;4825155;29;20037;-79
2022/02/22 01:47:04;;;;;;;0.00;0.00;;;;;;;12.39;66.19;97754.38;4826223;29;20505;-78
2022/02/22 01:49:31;;;;;;;0.00;0.00;;;;;;;12.32;65.96;97762.91;4843056;29;20022;-77
2022/02/22 01:51:57;;;;;;;0.22;0.22;;;;;;;12.33;66.36;97761.03;4826616;29;20029;-77
2022/02/22 01:54:25;;;;;;;0.00;0.00;;;;;;;12.30;66.26;97764.34;4826665;29;20101;-77
2022/02/22 01:56:52;;;;;;;0.10;0.10;;;;;;;12.32;66.46;97762.13;4826904;29;20034;-80
2022/02/22 01:59:18;;;;;;;0.10;0.10;;;;;;;12.30;66.22;97756.28;4826466;29;20512;-79
2022/02/22 02:01:44;;;;;;;0.00;0.00;;;;;;;12.22;66.52;97763.25;4826738;29;20037;-76
2022/02/22 02:04:10;;;;;;;0.00;0.00;;;;;;;12.24;66.27;97752.22;4843226;29;20030;-81
2022/02/22 02:06:37;;;;;;;0.00;0.00;;;;;;;12.23;66.40;97756.00;4826431;29;20045;-82
2022/02/22 02:09:07;;;;;;;0.00;0.00;;;;;;;12.19;66.62;97745.13;4826088;29;20038;-81
2022/02/22 02:11:41;;;;;;;0.00;0.00;;;;;;;12.26;66.09;97758.81;4825985;29;20511;-81
2022/02/22 02:14:07;;;;;;;0.17;0.17;;;;;;;12.22;66.38;97751.72;4826627;29;20033;-77
2022/02/22 02:16:32;;;;;;;0.00;0.00;;;;;;;12.21;66.37;97755.53;4826457;29;20395;-79
2022/02/22 02:18:58;;;;;;;0.10;0.10;;;;;;;12.18;66.00;97748.91;4826500;29;20037;-82
2022/02/22 02:21:24;;;;;;;0.00;0.00;;;;;;;12.13;66.47;97746.41;4826384;29;20022;-80
2022/02/22 02:23:50;;;;;;;0.00;0.00;;;;;;;12.09;66.44;97743.56;4842989;29;20121;-81
2022/02/22 02:26:15;;;;;;;0.30;0.30;;;;;;;12.06;66.37;97752.25;4825770;29;20113;-80
2022/02/22 02:28:41;;;;;;;0.00;0.00;;;;;;;12.02;66.89;97751.28;4825766;29;20042;-83
2022/02/22 02:31:06;;;;;;;0.05;0.05;;;;;;;11.97;66.86;97757.63;4826324;29;20409;-78
2022/02/22 02:33:32;;;;;;;0.00;0.00;;;;;;;11.92;66.95;97756.97;4825565;29;20158;-83
2022/02/22 02:35:57;;;;;;;0.00;0.00;;;;;;;11.90;66.73;97757.28;4826225;29;20471;-81
2022/02/22 02:38:23;;;;;;;0.00;0.00;;;;;;;11.82;67.23;97750.81;4839338;29;20040;-82
2022/02/22 02:40:48;;;;;;;0.00;0.00;;;;;;;11.78;67.14;97755.22;4825936;29;20036;-80
2022/02/22 02:43:13;;;;;;;0.00;0.00;;;;;;;11.75;66.99;97757.75;4824678;29;20144;-82
2022/02/22 02:45:39;;;;;;;0.00;0.00;;;;;;;11.69;67.50;97751.75;4826128;29;20089;-84
2022/02/22 02:48:04;;;;;;;0.00;0.00;;;;;;;11.65;66.89;97734.75;4825618;29;20058;-86
2022/02/22 02:50:30;;;;;;;0.00;0.00;;;;;;;11.64;67.12;97749.22;4825730;29;20394;-82
2022/02/22 02:52:55;;;;;;;0.00;0.00;;;;;;;11.60;67.02;97749.06;4825646;29;20033;-80
2022/02/22 02:55:21;;;;;;;0.00;0.00;;;;;;;11.56;67.09;97756.16;4842127;29;20094;-80
2022/02/22 02:57:46;;;;;;;0.05;0.05;;;;;;;11.55;67.21;97751.91;4825632;29;20069;-85
2022/02/22 03:00:12;;;;;;;0.00;0.00;;;;;;;11.53;67.11;97746.06;4825251;29;20061;-87
2022/02/22 03:02:38;;;;;;;0.00;0.00;;;;;;;11.51;67.15;97746.41;4825489;29;20026;-83
2022/02/22 03:05:03;;;;;;;0.00;0.00;;;;;;;11.48;67.27;97749.69;4826001;29;20065;-87
2022/02/22 03:07:29;;;;;;;0.00;0.00;;;;;;;11.47;67.21;97748.09;4823015;29;20446;-84
2022/02/22 03:09:55;;;;;;;0.00;0.00;;;;;;;11.47;67.36;97755.34;4825706;29;20065;-79
2022/02/22 03:12:20;;;;;;;0.25;0.22;;;;;;;11.42;67.01;97758.97;4824877;29;20397;-80
2022/02/22 03:14:48;;;;;;;0.00;0.00;;;;;;;11.40;67.58;97744.31;4825658;29;20042;-81
2022/02/22 03:17:13;;;;;;;0.00;0.00;;;;;;;11.37;67.38;97757.22;4825365;29;20038;-81
2022/02/22 03:19:39;;;;;;;0.00;0.00;;;;;;;11.33;67.73;97753.59;4823632;29;20586;-84
2022/02/22 03:22:05;;;;;;;0.00;0.00;;;;;;;11.32;67.73;97757.38;4825419;29;20509;-84
2022/02/22 03:24:30;;;;;;;0.00;0.00;;;;;;;11.27;67.53;97756.75;4824649;29;20435;-84
2022/02/22 03:26:55;;;;;;;0.25;0.25;;;;;;;11.23;67.92;97753.91;4825034;29;20601;-81
2022/02/22 03:29:21;;;;;;;0.00;0.00;;;;;;;11.24;67.42;97762.72;4824774;29;20041;-83
2022/02/22 03:31:46;;;;;;;0.00;0.00;;;;;;;11.23;67.48;97761.94;4824956;29;20046;-85
2022/02/22 03:34:12;;;;;;;0.00;0.00;;;;;;;11.22;67.87;97768.41;4825119;29;20554;-80
2022/02/22 03:36:38;;;;;;;0.22;0.22;;;;;;;11.16;68.00;97773.09;4825481;29;20033;-81
2022/02/22 03:39:04;;;;;;;0.08;0.08;;;;;;;11.10;68.49;97768.22;4819454;29;20022;-79
2022/02/22 03:41:29;;;;;;;0.00;0.00;;;;;;;11.03;68.85;97769.44;4833615;29;20055;-79
2022/02/22 03:43:55;;;;;;;0.00;0.00;;;;;;;10.99;68.48;97770.38;4824913;29;20030;-79
2022/02/22 03:46:20;;;;;;;0.00;0.00;;;;;;;10.96;68.79;97771.78;4841729;29;20034;-79
2022/02/22 03:48:46;;;;;;;0.00;0.00;;;;;;;10.92;68.47;97775.38;4824181;29;20082;-80
2022/02/22 03:51:12;;;;;;;0.00;0.00;;;;;;;10.83;68.59;97770.00;4824735;29;20040;-81
2022/02/22 03:53:37;;;;;;;0.00;0.00;;;;;;;10.77;68.71;97774.69;4831885;29;20514;-83
2022/02/22 03:56:03;;;;;;;0.05;0.05;;;;;;;10.71;69.02;97770.56;4825085;29;20069;-81
2022/02/22 03:58:28;;;;;;;0.00;0.00;;;;;;;10.66;69.05;97776.84;4839719;29;20029;-79
2022/02/22 04:00:54;;;;;;;0.00;0.00;;;;;;;10.62;69.38;97767.06;4841021;29;20149;-83
2022/02/22 04:03:19;;;;;;;0.00;0.00;;;;;;;10.57;69.00;97770.69;4824614;29;20030;-85
2022/02/22 04:05:46;;;;;;;0.00;0.00;;;;;;;10.54;68.83;97771.28;4824512;29;20505;-84
2022/02/22 04:08:13;;;;;;;0.00;0.00;;;;;;;10.47;68.95;97763.69;4822895;29;20022;-79
2022/02/22 04:10:38;;;;;;;0.00;0.00;;;;;;;10.44;69.23;97774.22;4837362;29;20033;-78
2022/02/22 04:13:04;;;;;;;0.00;0.00;;;;;;;10.38;69.13;97771.66;4824591;29;20394;-78
2022/02/22 04:15:29;;;;;;;0.00;0.00;;;;;;;10.33;69.24;97771.75;4824485;29;20037;-79
2022/02/22 04:17:55;;;;;;;0.00;0.00;;;;;;;10.29;69.79;97773.47;4824732;29;20032;-80
2022/02/22 04:20:21;;;;;;;0.00;0.00;;;;;;;10.24;69.46;97774.38;4823798;29;20036;-77
2022/02/22 04:22:46;;;;;;;0.00;0.00;;;;;;;10.15;70.02;97773.53;4823913;29;20036;-78
2022/02/22 04:25:12;;;;;;;0.00;0.00;;;;;;;10.12;69.94;97766.13;4840771;29;20030;-78
2022/02/22 04:27:37;;;;;;;0.00;0.00;;;;;;;10.03;69.70;97765.28;4840550;29;20037;-90
2022/02/22 04:30:05;;;;;;;0.00;0.00;;;;;;;10.03;70.30;97773.28;4830817;29;20030;-87
2022/02/22 04:32:30;;;;;;;0.00;0.00;;;;;;;9.97;70.10;97763.81;4824164;29;20144;-82
2022/02/22 04:34:56;;;;;;;0.00;0.00;;;;;;;9.92;70.31;97762.06;4823746;29;20129;-81
2022/02/22 04:37:21;;;;;;;0.00;0.00;;;;;;;9.88;70.61;97769.09;4824211;29;20393;-83
2022/02/22 04:39:52;;;;;;;0.00;0.00;;;;;;;9.83;70.35;97780.69;4823858;29;20076;-90
2022/02/22 04:42:18;;;;;;;0.28;0.28;;;;;;;9.73;70.60;97779.03;4823909;29;20049;-87
2022/02/22 04:44:44;;;;;;;0.00;0.00;;;;;;;9.68;69.97;97773.81;4824170;29;20034;-85
2022/02/22 04:47:11;;;;;;;0.00;0.00;;;;;;;9.60;70.23;97772.63;4823409;29;20041;-80
2022/02/22 04:49:37;;;;;;;0.08;0.08;;;;;;;9.56;70.47;97777.00;4823568;29;20026;-80
2022/02/22 04:52:04;;;;;;;0.00;0.00;;;;;;;9.52;71.01;97775.22;4823703;29;20057;-83
2022/02/22 04:54:29;;;;;;;0.00;0.00;;;;;;;9.48;70.84;97775.03;4823452;29;20033;-80
2022/02/22 04:56:55;;;;;;;0.00;0.00;;;;;;;9.42;70.65;97777.03;4823925;29;20033;-77
2022/02/22 04:59:26;;;;;;;0.00;0.00;;;;;;;9.41;70.57;97772.78;4839938;29;20190;-83
2022/02/22 05:01:52;;;;;;;0.00;0.00;;;;;;;9.36;70.61;97775.56;4823664;29;20421;-80
2022/02/22 05:04:18;;;;;;;0.00;0.00;;;;;;;9.32;70.52;97781.78;4823022;29;20034;-84
2022/02/22 05:06:43;;;;;;;0.00;0.00;;;;;;;9.27;71.06;97780.00;4808346;29;20041;-82
2022/02/22 05:09:09;;;;;;;0.00;0.00;;;;;;;9.24;71.38;97783.25;4823541;29;20485;-82
2022/02/22 05:11:35;;;;;;;0.00;0.00;;;;;;;9.21;71.14;97781.22;4838526;29;20401;-80
2022/02/22 05:14:03;;;;;;;0.00;0.00;;;;;;;9.16;71.83;97787.44;4822658;29;20496;-82
2022/02/22 05:16:32;;;;;;;0.00;0.00;;;;;;;9.11;72.20;97793.66;4832015;29;20116;-79
2022/02/22 05:19:00;;;;;;;0.00;0.00;;;;;;;9.11;72.16;97792.88;4834117;29;20120;-79
2022/02/22 05:21:26;;;;;;;0.00;0.00;;;;;;;9.11;72.28;97803.53;4823334;29;20061;-80
2022/02/22 05:23:51;;;;;;;0.00;0.00;;;;;;;9.09;72.90;97797.72;4824307;29;20065;-79
2022/02/22 05:26:17;;;;;;;0.10;0.10;;;;;;;9.11;72.84;97801.66;4822628;29;20113;-82
2022/02/22 05:28:45;;;;;;;0.10;0.10;;;;;;;9.19;73.03;97816.19;4823120;29;20465;-80
2022/02/22 05:31:14;;;;;;;0.00;0.00;;;;;;;9.25;72.85;97793.66;4840072;29;20468;-79
2022/02/22 05:33:39;;;;;;;0.00;0.00;;;;;;;9.36;73.00;97802.25;4839309;29;20054;-87
2022/02/22 05:36:05;;;;;;;0.00;0.00;;;;;;;9.52;72.73;97802.72;4838652;29;20070;-87
2022/02/22 05:38:31;;;;;;;0.00;0.00;;;;;;;9.67;72.58;97806.16;4838469;29;20398;-87
2022/02/22 05:40:56;;;;;;;0.00;0.00;;;;;;;9.81;71.94;97804.22;4823594;29;20551;-86
2022/02/22 05:43:22;;;;;;;0.00;0.00;;;;;;;9.88;71.71;97801.16;4823288;29;20032;-87
2022/02/22 05:45:47;;;;;;;0.10;0.10;;;;;;;9.96;71.40;97808.44;4823622;29;20426;-87
2022/02/22 05:48:13;;;;;;;0.00;0.00;;;;;;;10.01;70.55;97807.50;4823313;29;20038;-87
2022/02/22 05:50:40;;;;;;;0.00;0.00;;;;;;;10.06;70.64;97810.88;4823624;29;20025;-86
2022/02/22 05:53:05;;;;;;;0.30;0.30;;;;;;;10.12;70.82;97816.91;4823259;29;20053;-86
2022/02/22 05:55:31;;;;;;;0.38;0.38;;;;;;;10.16;70.58;97809.06;4823130;29;21113;-85
2022/02/22 05:57:57;;;;;;;0.00;0.00;;;;;;;10.19;70.69;97813.78;4833441;29;20033;-86
2022/02/22 06:00:22;;;;;;;0.10;0.10;;;;;;;10.23;70.52;97818.22;4823463;29;20474;-86
2022/02/22 06:02:48;;;;;;;0.00;0.00;;;;;;;10.28;70.28;97817.31;4823583;29;20484;-86
2022/02/22 06:05:13;;;;;;;0.10;0.10;;;;;;;10.32;69.41;97817.50;4822862;29;20041;-85
2022/02/22 06:07:39;;;;;;;0.00;0.00;;;;;;;10.29;69.80;97820.78;4822939;29;20022;-87
2022/02/22 06:10:05;;;;;;;0.00;0.00;;;;;;;10.28;69.78;97819.19;4823563;29;20026;-86
2022/02/22 06:12:31;;;;;;;0.47;0.47;;;;;;;10.24;69.88;97822.47;4822906;29;20505;-86
2022/02/22 06:14:56;;;;;;;0.00;0.00;;;;;;;10.25;69.89;97828.59;4822907;29;20057;-86
2022/02/22 06:17:22;;;;;;;0.00;0.00;;;;;;;10.22;70.53;97827.34;4822689;29;20030;-85
2022/02/22 06:19:48;;;;;;;0.00;0.00;;;;;;;10.14;70.34;97830.72;4837889;29;20120;-85
2022/02/22 06:22:14;;;;;;;0.10;0.10;;;;;;;10.13;70.56;97831.84;4831172;29;20037;-86
2022/02/22 06:24:39;;;;;;;0.90;0.90;;;;;;;10.08;71.18;97822.06;4822659;29;20086;-85
2022/02/22 06:27:05;;;;;;;0.00;0.00;;;;;;;10.07;71.29;97823.13;4822609;29;20086;-85
2022/02/22 06:29:32;;;;;;;0.10;0.10;;;;;;;10.02;71.97;97817.13;4837974;29;20030;-86
2022/02/22 06:31:58;;;;;;;0.10;0.10;;;;;;;9.98;72.30;97810.81;4824937;29;20053;-85
2022/02/22 06:34:23;;;;;;;0.30;0.30;;;;;;;9.96;72.64;97818.31;4826172;29;20509;-86
2022/02/22 06:36:49;;;;;;;0.00;0.00;;;;;;;9.96;72.93;97821.00;4826367;29;20037;-87
2022/02/22 06:39:14;;;;;;;0.30;0.30;;;;;;;9.94;72.49;97818.63;4826128;29;20025;-87
2022/02/22 06:41:40;;;;;;;0.00;0.00;;;;;;;9.98;72.72;97813.47;4826365;29;20497;-87
2022/02/22 06:44:05;;;;;;;0.00;0.00;;;;;;;10.03;73.00;97824.03;4826161;29;20032;-87
2022/02/22 06:46:31;;;;;;;0.10;0.10;;;;;;;10.06;73.26;97837.59;4825853;29;20033;-87
2022/02/22 06:48:57;;;;;;;0.38;0.35;;;;;;;10.13;73.21;97858.56;4841387;29;20034;-86
2022/02/22 06:51:22;;;;;;;0.00;0.00;;;;;;;10.21;73.28;97847.13;4825984;29;20065;-86
2022/02/22 06:53:48;;;;;;;0.00;0.00;;;;;;;10.27;73.43;97855.03;4826156;29;20026;-86
2022/02/22 06:56:13;;;;;;;0.00;0.00;;;;;;;10.27;72.44;97855.81;4825762;29;20034;-86
2022/02/22 06:58:39;;;;;;;0.00;0.00;;;;;;;10.29;72.98;97866.19;4825961;29;20021;-86
2022/02/22 07:01:04;;;;;;;0.10;0.10;;;;;;;10.34;72.96;97858.84;4825858;29;20470;-86
2022/02/22 07:03:30;;;;;;;0.00;0.00;;;;;;;10.44;72.78;97867.78;4825630;29;20026;-84
2022/02/22 07:05:55;;;;;;;0.10;0.10;;;;;;;10.47;73.06;97880.50;4825895;29;20534;-87
2022/02/22 07:08:21;;;;;;;0.00;0.00;;;;;;;10.53;72.99;97877.44;4825605;29;20109;-84
2022/02/22 07:10:46;;;;;;;0.20;0.20;;;;;;;10.68;72.98;97878.13;4825450;29;20041;-86
2022/02/22 07:13:12;;;;;;;0.30;0.15;;;;;;;10.71;72.16;97874.84;4825535;29;20026;-85
2022/02/22 07:15:37;;;;;;;0.10;0.10;;;;;;;10.84;72.87;97879.34;4825861;29;20030;-85
2022/02/22 07:18:08;;;;;;;0.00;0.00;;;;;;;10.90;72.27;97874.66;4825768;29;20474;-84
2022/02/22 07:20:34;;;;;;;0.50;0.50;;;;;;;11.02;71.62;97874.06;4825367;29;20102;-84
2022/02/22 07:23:00;;;;;;;1.52;0.93;;;;;;;11.00;71.76;97877.06;4825625;29;20442;-85
2022/02/22 07:25:27;;;;;;;1.05;1.05;;;;;;;10.99;72.18;97883.50;4825364;29;20116;-86
2022/02/22 07:27:58;;;;;;;0.73;0.73;;;;;;;10.86;71.64;97879.84;4825496;29;20030;-86
2022/02/22 07:30:25;;;;;;;1.75;1.65;;;;;;;10.77;71.80;97875.53;4825115;29;20034;-88
2022/02/22 07:32:55;;;;;;;1.50;1.23;;;;;;;10.65;72.46;97879.53;4840728;29;20026;-86
2022/02/22 07:35:20;;;;;;;0.40;0.40;;;;;;;10.63;72.43;97872.91;4825323;29;20029;-86
2022/02/22 07:37:46;;;;;;;1.00;1.00;;;;;;;10.67;72.63;97871.22;4825410;29;20113;-86
2022/02/22 07:40:16;;;;;;;0.20;0.20;;;;;;;10.71;72.96;97878.31;4825189;29;20033;-84
2022/02/22 07:42:41;;;;;;;2.63;0.95;;;;;;;10.80;72.99;97878.38;4834397;29;20541;-85
2022/02/22 07:45:08;;;;;;;0.57;0.57;;;;;;;10.95;72.18;97881.75;4825213;29;20163;-87
2022/02/22 07:47:34;;;;;;;0.28;0.28;;;;;;;10.99;72.41;97883.50;4840091;29;20022;-85
2022/02/22 07:50:00;;;;;;;0.40;0.40;;;;;;;11.10;72.66;97886.72;4825134;29;20385;-85
2022/02/22 07:52:30;;;;;;;0.10;0.10;;;;;;;11.29;71.99;97888.34;4824995;29;20108;-86
2022/02/22 07:54:56;;;;;;;0.00;0.00;;;;;;;11.49;71.89;97889.72;4840351;29;20121;-86
2022/02/22 07:57:22;;;;;;;0.45;0.45;;;;;;;11.68;70.98;97887.56;4839881;29;20113;-85
2022/02/22 07:59:48;;;;;;;0.22;0.22;;;;;;;11.88;69.64;97882.72;4824887;29;20443;-85
2022/02/22 08:02:13;;;;;;;0.40;0.40;;;;;;;11.98;69.96;97878.97;4824688;29;20026;-86
2022/02/22 08:04:40;;;;;;;0.35;0.35;;;;;;;12.12;69.61;97873.44;4825029;29;20034;-85
2022/02/22 08:07:07;;;;;;;6.40;1.70;;;;;;;12.23;68.01;97874.72;4824892;29;20121;-86
2022/02/22 08:09:33;;;;;;;0.90;0.90;;;;;;;12.32;68.66;97866.69;4839889;29;20033;-85
2022/02/22 08:11:58;;;;;;;0.20;0.20;;;;;;;12.43;68.69;97877.88;4824565;29;20451;-86
2022/02/22 08:14:24;;;;;;;0.10;0.10;;;;;;;12.59;67.15;97875.50;4824581;29;20045;-85
2022/02/22 08:16:51;;;;;;;0.00;0.00;;;;;;;12.62;67.18;97867.59;4824866;29;20045;-84
2022/02/22 08:19:17;;;;;;;0.80;0.80;;;;;;;12.59;67.29;97862.09;4824563;29;20044;-85
2022/02/22 08:21:43;;;;;;;0.00;0.00;;;;;;;12.52;67.01;97867.91;4839651;29;20033;-85
2022/02/22 08:24:08;;;;;;;0.47;0.47;;;;;;;12.45;68.04;97870.28;4824598;29;20053;-86
2022/02/22 08:26:34;;;;;;;0.20;0.20;;;;;;;12.47;67.77;97873.44;4824476;29;20032;-85
2022/02/22 08:28:59;;;;;;;0.20;0.20;;;;;;;12.40;68.02;97875.81;4824615;29;20030;-86
2022/02/22 08:31:26;;;;;;;1.98;0.93;;;;;;;12.32;67.88;97883.53;4824070;29;20085;-83
2022/02/22 08:33:58;;;;;;;0.10;0.10;;;;;;;12.29;68.57;97872.66;4824548;29;20093;-85
2022/02/22 08:36:25;;;;;;;0.30;0.30;;;;;;;12.41;69.28;97882.75;4824288;29;20026;-84
2022/02/22 08:38:51;;;;;;;10.55;0.63;;;;;;;12.52;68.97;97877.88;4824423;29;20068;-84
2022/02/22 08:41:17;;;;;;;0.22;0.22;;;;;;;12.57;67.96;97883.06;4824180;29;20211;-84
2022/02/22 08:43:43;;;;;;;0.25;0.25;;;;;;;12.57;67.96;97878.50;4824443;29;20109;-85
2022/02/22 08:46:08;;;;;;;0.47;0.47;;;;;;;12.62;67.50;97880.22;4824457;29;20030;-85
2022/02/22 08:48:33;;;;;;;0.57;0.57;;;;;;;12.62;67.61;97875.66;4824177;29;20625;-84
2022/02/22 08:50:59;;;;;;;0.30;0.30;;;;;;;12.59;67.89;97868.22;4824367;29;20482;-84
2022/02/22 08:53:24;;;;;;;0.82;0.82;;;;;;;12.61;67.13;97873.28;4823717;29;20030;-84
2022/02/22 08:55:50;;;;;;;1.15;1.10;;;;;;;12.59;67.51;97868.22;4824324;29;20042;-85
2022/02/22 08:58:15;;;;;;;0.00;0.00;;;;;;;12.59;67.52;97873.59;4824064;29;20094;-85
2022/02/22 09:00:41;;;;;;;0.00;0.00;;;;;;;12.59;67.21;97868.22;4824143;29;20048;-85
2022/02/22 09:03:07;;;;;;;0.47;0.47;;;;;;;12.57;67.21;97870.44;4824180;29;20034;-85
2022/02/22 09:05:34;;;;;;;0.28;0.28;;;;;;;12.62;66.85;97864.91;4823801;29;20110;-85
2022/02/22 09:08:00;;;;;;;1.65;1.13;;;;;;;12.57;66.70;97857.03;4824143;29;20485;-85
2022/02/22 09:10:26;;;;;;;0.20;0.20;;;;;;;12.58;67.08;97853.22;4827571;29;20033;-85
2022/02/22 09:12:51;;;;;;;0.47;0.47;;;;;;;12.56;68.10;97857.34;4824118;29;20046;-86
2022/02/22 09:15:19;;;;;;;0.25;0.25;;;;;;;12.53;67.72;97848.03;4823864;29;20087;-85
2022/02/22 09:17:46;;;;;;;0.05;0.05;;;;;;;12.54;67.88;97854.97;4824039;29;20025;-85
2022/02/22 09:20:14;;;;;;;0.40;0.40;;;;;;;12.59;67.80;97851.34;4823813;29;20073;-85
2022/02/22 09:22:40;;;;;;;0.55;0.55;;;;;;;12.59;67.51;97844.09;4824055;29;20026;-85
2022/02/22 09:25:08;;;;;;;0.10;0.10;;;;;;;12.67;67.80;97849.75;4824044;29;20038;-84
2022/02/22 09:27:34;;;;;;;0.75;0.75;;;;;;;12.74;67.53;97852.75;4823772;29;20053;-84
2022/02/22 09:29:59;;;;;;;1.85;1.27;;;;;;;12.84;66.84;97847.03;4823916;29;20474;-84
2022/02/22 09:32:25;;;;;;;0.95;0.95;;;;;;;12.95;66.73;97844.78;4823658;29;20101;-83
2022/02/22 09:34:53;;;;;;;0.00;0.00;;;;;;;13.05;66.85;97844.44;4823827;29;20385;-84
2022/02/22 09:37:19;;;;;;;0.55;0.55;;;;;;;13.16;66.39;97844.88;4823580;29;20122;-83
2022/02/22 09:39:44;;;;;;;0.00;0.00;;;;;;;13.26;65.55;97831.09;4823879;29;20053;-84
2022/02/22 09:42:10;;;;;;;0.52;0.52;;;;;;;13.38;65.99;97837.72;4823817;29;20052;-83
2022/02/22 09:44:37;;;;;;;0.00;0.00;;;;;;;13.50;64.54;97828.94;4823639;29;20018;-83
2022/02/22 09:47:04;;;;;;;2.03;0.98;;;;;;;13.57;63.78;97835.38;4823784;29;20025;-83
2022/02/22 09:49:30;;;;;;;0.75;0.75;;;;;;;13.69;63.75;97831.97;4838686;29;20032;-84
2022/02/22 09:51:56;;;;;;;0.10;0.10;;;;;;;13.83;63.73;97831.75;4838594;29;20030;-83
2022/02/22 09:54:22;;;;;;;0.25;0.25;;;;;;;13.97;63.41;97834.16;4824316;29;20125;-84
2022/02/22 09:56:48;;;;;;;0.00;0.00;;;;;;;14.13;63.09;97826.28;4824184;29;20111;-83
2022/02/22 09:59:15;;;;;;;0.10;0.10;;;;;;;14.29;62.42;97829.16;4838568;29;20033;-83
2022/02/22 10:01:44;;;;;;;0.38;0.38;;;;;;;14.41;62.22;97825.72;4823657;29;20117;-83
2022/02/22 10:04:10;;;;;;;0.32;0.32;;;;;;;14.54;61.84;97830.03;4823278;29;20032;-84
2022/02/22 10:06:37;;;;;;;0.38;0.38;;;;;;;14.57;61.50;97829.38;4840248;29;20026;-83
2022/02/22 10:09:04;;;;;;;1.00;0.95;;;;;;;14.60;61.36;97837.88;4841985;29;20129;-85
2022/02/22 10:11:33;;;;;;;0.10;0.10;;;;;;;14.56;61.30;97832.38;4826600;29;20375;-83
2022/02/22 10:14:02;;;;;;;0.22;0.22;;;;;;;14.62;61.58;97832.97;4826688;29;20033;-84
2022/02/22 10:16:39;;;;;;;0.10;0.10;;;;;;;14.70;61.55;97837.50;4827525;29;20522;-83
2022/02/22 10:19:04;;;;;;;0.10;0.10;;;;;;;14.71;61.62;97833.69;4826884;29;20034;-84
2022/02/22 10:21:39;;;;;;;0.00;0.00;;;;;;;14.76;61.38;97835.38;4826888;29;20041;-83
2022/02/22 10:24:12;;;;;;;0.20;0.20;;;;;;;14.73;61.17;97834.94;4826609;29;20053;-83
2022/02/22 10:26:38;;;;;;;0.00;0.00;;;;;;;14.76;61.06;97833.47;4841491;29;20525;-82
2022/02/22 10:29:18;;;;;;;0.40;0.40;;;;;;;14.78;61.03;97833.94;4826392;29;20018;-83
2022/02/22 10:31:45;;;;;;;0.10;0.10;;;;;;;14.82;60.80;97832.16;4826674;29;20137;-85
2022/02/22 10:34:11;;;;;;;0.20;0.20;;;;;;;14.83;60.97;97831.03;4843411;29;20022;-85
2022/02/22 10:36:40;;;;;;;0.80;0.75;;;;;;;14.88;61.20;97833.50;4825990;29;20045;-84
2022/02/22 10:39:08;;;;;;;0.10;0.10;;;;;;;14.92;60.73;97822.06;4826472;29;20025;-85
2022/02/22 10:41:39;;;;;;;0.38;0.38;;;;;;;14.97;60.92;97825.31;4826318;29;20041;-83
2022/02/22 10:44:08;;;;;;;0.15;0.15;;;;;;;14.95;60.96;97819.50;4826328;29;20029;-85
2022/02/22 10:46:39;;;;;;;0.28;0.28;;;;;;;14.97;60.96;97819.94;4826033;29;20367;-83
2022/02/22 10:49:13;;;;;;;0.10;0.10;;;;;;;15.00;60.74;97829.25;4826209;29;20177;-85
2022/02/22 10:51:48;;;;;;;0.20;0.20;;;;;;;15.07;60.73;97821.41;4826094;29;20152;-85
2022/02/22 10:54:19;;;;;;;0.32;0.32;;;;;;;15.14;61.21;97834.31;4825909;29;20030;-85
2022/02/22 10:56:45;;;;;;;0.32;0.32;;;;;;;15.19;60.74;97826.78;4825813;29;20038;-85
2022/02/22 10:59:11;;;;;;;1.40;1.38;;;;;;;15.24;61.17;97816.94;4825961;29;20113;-85
2022/02/22 11:01:37;;;;;;;0.28;0.28;;;;;;;15.30;61.24;97815.59;4825786;29;20033;-84
2022/02/22 11:04:04;;;;;;;0.10;0.10;;;;;;;15.40;60.49;97814.34;4834033;29;20459;-85
2022/02/22 11:06:30;;;;;;;0.22;0.22;;;;;;;15.35;60.70;97813.44;4825697;29;20029;-82
2022/02/22 11:08:57;;;;;;;0.03;0.03;;;;;;;15.36;61.05;97815.00;4825567;29;20451;-84
2022/02/22 11:11:34;;;;;;;0.20;0.20;;;;;;;15.42;61.13;97820.19;4825628;29;20068;-84
2022/02/22 11:14:02;;;;;;;0.43;0.43;;;;;;;15.46;61.15;97813.75;4825949;29;20033;-82
2022/02/22 11:16:48;;;;;;;0.10;0.10;;;;;;;15.55;61.85;97810.97;4825063;29;20045;-83
2022/02/22 11:19:27;;;;;;;0.00;0.00;;;;;;;15.64;60.98;97813.53;4840855;29;20417;-83
2022/02/22 11:22:08;;;;;;;1.10;1.08;;;;;;;15.69;60.88;97810.59;4825651;29;20029;-85
2022/02/22 11:24:49;;;;;;;0.40;0.40;;;;;;;15.75;60.44;97811.16;4825261;29;20121;-84
2022/02/22 11:27:28;;;;;;;0.20;0.20;;;;;;;15.88;60.16;97807.34;4825169;29;20036;-83
2022/02/22 11:30:06;;;;;;;0.10;0.10;;;;;;;15.89;60.32;97806.19;4824834;29;20112;-85